sensor_id;sensor_type;location;lat;lon;timestamp;P1;durP1;ratioP1;P2;durP2;ratioP2
6987;SDS011;3534;49.960;8.018;2023-06-22T00:01:12;8.83;;;6.63;;
6987;SDS011;3534;49.960;8.018;2023-06-22T00:03:39;10.20;;;7.73;;
6987;SDS011;3534;49.960;8.018;2023-06-22T00:06:05;8.90;;;7.23;;
6987;SDS011;3534;49.960;8.018;2023-06-22T00:08:32;10.73;;;6.60;;
6987;SDS011;3534;49.960;8.018;2023-06-22T00:10:59;8.93;;;7.00;;
6987;SDS011;3534;49.960;8.018;2023-06-22T00:13:27;7.57;;;6.77;;
6987;SDS011;3534;49.960;8.018;2023-06-22T00:15:53;8.80;;;6.40;;
6987;SDS011;3534;49.960;8.018;2023-06-22T00:18:20;10.43;;;6.00;;
6987;SDS011;3534;49.960;8.018;2023-06-22T00:20:47;7.13;;;6.30;;
6987;SDS011;3534;49.960;8.018;2023-06-22T00:23:13;8.67;;;5.87;;
6987;SDS011;3534;49.960;8.018;2023-06-22T00:25:41;9.20;;;5.77;;
6987;SDS011;3534;49.960;8.018;2023-06-22T00:28:07;8.57;;;6.27;;
6987;SDS011;3534;49.960;8.018;2023-06-22T00:30:35;7.60;;;6.20;;
6987;SDS011;3534;49.960;8.018;2023-06-22T00:33:02;9.37;;;6.37;;
6987;SDS011;3534;49.960;8.018;2023-06-22T00:35:32;15.70;;;6.70;;
6987;SDS011;3534;49.960;8.018;2023-06-22T00:37:59;9.70;;;6.70;;
6987;SDS011;3534;49.960;8.018;2023-06-22T00:40:28;7.70;;;6.90;;
6987;SDS011;3534;49.960;8.018;2023-06-22T00:42:56;8.70;;;7.10;;
6987;SDS011;3534;49.960;8.018;2023-06-22T00:45:23;10.93;;;7.53;;
6987;SDS011;3534;49.960;8.018;2023-06-22T00:47:51;8.83;;;6.57;;
6987;SDS011;3534;49.960;8.018;2023-06-22T00:50:20;12.40;;;6.70;;
6987;SDS011;3534;49.960;8.018;2023-06-22T00:52:48;7.60;;;6.70;;
6987;SDS011;3534;49.960;8.018;2023-06-22T00:55:18;9.83;;;6.77;;
6987;SDS011;3534;49.960;8.018;2023-06-22T00:57:45;8.20;;;7.00;;
6987;SDS011;3534;49.960;8.018;2023-06-22T01:00:12;12.83;;;7.53;;
6987;SDS011;3534;49.960;8.018;2023-06-22T01:02:44;12.70;;;7.67;;
6987;SDS011;3534;49.960;8.018;2023-06-22T01:05:13;9.10;;;7.00;;
6987;SDS011;3534;49.960;8.018;2023-06-22T01:07:42;12.40;;;7.93;;
6987;SDS011;3534;49.960;8.018;2023-06-22T01:10:21;12.97;;;8.37;;
6987;SDS011;3534;49.960;8.018;2023-06-22T01:12:55;13.20;;;7.63;;
6987;SDS011;3534;49.960;8.018;2023-06-22T01:15:27;10.33;;;6.87;;
6987;SDS011;3534;49.960;8.018;2023-06-22T01:17:57;10.60;;;7.60;;
6987;SDS011;3534;49.960;8.018;2023-06-22T01:20:26;9.47;;;7.17;;
6987;SDS011;3534;49.960;8.018;2023-06-22T01:22:59;8.80;;;7.47;;
6987;SDS011;3534;49.960;8.018;2023-06-22T01:25:33;12.30;;;8.80;;
6987;SDS011;3534;49.960;8.018;2023-06-22T01:28:09;8.23;;;7.37;;
6987;SDS011;3534;49.960;8.018;2023-06-22T01:30:47;8.90;;;7.87;;
6987;SDS011;3534;49.960;8.018;2023-06-22T01:33:28;13.83;;;7.33;;
6987;SDS011;3534;49.960;8.018;2023-06-22T01:35:57;9.83;;;7.40;;
6987;SDS011;3534;49.960;8.018;2023-06-22T01:38:23;9.33;;;7.60;;
6987;SDS011;3534;49.960;8.018;2023-06-22T01:40:51;30.00;;;8.57;;
6987;SDS011;3534;49.960;8.018;2023-06-22T01:43:19;9.43;;;7.33;;
6987;SDS011;3534;49.960;8.018;2023-06-22T01:45:49;9.07;;;7.27;;
6987;SDS011;3534;49.960;8.018;2023-06-22T01:48:17;12.93;;;7.93;;
6987;SDS011;3534;49.960;8.018;2023-06-22T01:50:44;9.50;;;7.63;;
6987;SDS011;3534;49.960;8.018;2023-06-22T01:53:11;11.00;;;7.80;;
6987;SDS011;3534;49.960;8.018;2023-06-22T01:55:37;9.50;;;7.90;;
6987;SDS011;3534;49.960;8.018;2023-06-22T01:58:04;7.97;;;7.27;;
6987;SDS011;3534;49.960;8.018;2023-06-22T02:00:31;8.90;;;7.80;;
6987;SDS011;3534;49.960;8.018;2023-06-22T02:03:05;8.73;;;7.20;;
6987;SDS011;3534;49.960;8.018;2023-06-22T02:05:36;12.90;;;7.30;;
6987;SDS011;3534;49.960;8.018;2023-06-22T02:08:08;12.50;;;7.30;;
6987;SDS011;3534;49.960;8.018;2023-06-22T02:10:38;9.80;;;7.47;;
6987;SDS011;3534;49.960;8.018;2023-06-22T02:13:07;10.90;;;8.07;;
6987;SDS011;3534;49.960;8.018;2023-06-22T02:15:37;14.70;;;8.07;;
6987;SDS011;3534;49.960;8.018;2023-06-22T02:18:05;8.90;;;8.00;;
6987;SDS011;3534;49.960;8.018;2023-06-22T02:20:32;13.43;;;7.50;;
6987;SDS011;3534;49.960;8.018;2023-06-22T02:22:58;13.53;;;9.80;;
6987;SDS011;3534;49.960;8.018;2023-06-22T02:25:25;12.83;;;8.90;;
6987;SDS011;3534;49.960;8.018;2023-06-22T02:27:52;13.50;;;10.27;;
6987;SDS011;3534;49.960;8.018;2023-06-22T02:30:18;18.83;;;13.43;;
6987;SDS011;3534;49.960;8.018;2023-06-22T02:32:45;13.50;;;10.70;;
6987;SDS011;3534;49.960;8.018;2023-06-22T02:35:13;13.43;;;9.30;;
6987;SDS011;3534;49.960;8.018;2023-06-22T02:37:40;10.60;;;8.93;;
6987;SDS011;3534;49.960;8.018;2023-06-22T02:40:07;10.20;;;8.23;;
6987;SDS011;3534;49.960;8.018;2023-06-22T02:42:35;8.97;;;8.07;;
6987;SDS011;3534;49.960;8.018;2023-06-22T02:45:02;16.87;;;8.93;;
6987;SDS011;3534;49.960;8.018;2023-06-22T02:47:29;11.40;;;8.10;;
6987;SDS011;3534;49.960;8.018;2023-06-22T02:49:55;11.93;;;7.97;;
6987;SDS011;3534;49.960;8.018;2023-06-22T02:52:23;10.97;;;9.50;;
6987;SDS011;3534;49.960;8.018;2023-06-22T02:54:50;10.50;;;8.57;;
6987;SDS011;3534;49.960;8.018;2023-06-22T02:57:17;12.73;;;9.07;;
6987;SDS011;3534;49.960;8.018;2023-06-22T02:59:44;13.50;;;8.57;;
6987;SDS011;3534;49.960;8.018;2023-06-22T03:02:10;10.87;;;9.13;;
6987;SDS011;3534;49.960;8.018;2023-06-22T03:04:37;13.23;;;9.43;;
6987;SDS011;3534;49.960;8.018;2023-06-22T03:07:04;11.40;;;8.07;;
6987;SDS011;3534;49.960;8.018;2023-06-22T03:09:32;11.50;;;8.90;;
6987;SDS011;3534;49.960;8.018;2023-06-22T03:11:59;11.30;;;8.60;;
6987;SDS011;3534;49.960;8.018;2023-06-22T03:14:27;12.23;;;8.60;;
6987;SDS011;3534;49.960;8.018;2023-06-22T03:16:53;11.50;;;9.00;;
6987;SDS011;3534;49.960;8.018;2023-06-22T03:19:26;11.90;;;8.67;;
6987;SDS011;3534;49.960;8.018;2023-06-22T03:21:54;9.93;;;8.47;;
6987;SDS011;3534;49.960;8.018;2023-06-22T03:24:21;11.60;;;9.70;;
6987;SDS011;3534;49.960;8.018;2023-06-22T03:26:49;12.80;;;9.10;;
6987;SDS011;3534;49.960;8.018;2023-06-22T03:29:15;10.93;;;8.60;;
6987;SDS011;3534;49.960;8.018;2023-06-22T03:31:42;13.03;;;11.30;;
6987;SDS011;3534;49.960;8.018;2023-06-22T03:34:09;15.50;;;10.93;;
6987;SDS011;3534;49.960;8.018;2023-06-22T03:36:35;16.00;;;12.50;;
6987;SDS011;3534;49.960;8.018;2023-06-22T03:39:02;14.13;;;10.83;;
6987;SDS011;3534;49.960;8.018;2023-06-22T03:41:29;14.00;;;10.60;;
6987;SDS011;3534;49.960;8.018;2023-06-22T03:43:57;15.87;;;11.40;;
6987;SDS011;3534;49.960;8.018;2023-06-22T03:46:23;13.60;;;11.73;;
6987;SDS011;3534;49.960;8.018;2023-06-22T03:48:50;12.93;;;10.93;;
6987;SDS011;3534;49.960;8.018;2023-06-22T03:51:17;16.00;;;10.97;;
6987;SDS011;3534;49.960;8.018;2023-06-22T03:53:44;12.77;;;9.20;;
6987;SDS011;3534;49.960;8.018;2023-06-22T03:56:10;9.27;;;7.67;;
6987;SDS011;3534;49.960;8.018;2023-06-22T03:58:37;9.63;;;7.80;;
6987;SDS011;3534;49.960;8.018;2023-06-22T04:01:09;9.97;;;7.90;;
6987;SDS011;3534;49.960;8.018;2023-06-22T04:03:37;10.93;;;9.67;;
6987;SDS011;3534;49.960;8.018;2023-06-22T04:06:03;15.70;;;9.93;;
6987;SDS011;3534;49.960;8.018;2023-06-22T04:08:30;10.33;;;8.80;;
6987;SDS011;3534;49.960;8.018;2023-06-22T04:10:57;14.10;;;10.40;;
6987;SDS011;3534;49.960;8.018;2023-06-22T04:13:23;13.83;;;9.27;;
6987;SDS011;3534;49.960;8.018;2023-06-22T04:15:50;12.53;;;9.33;;
6987;SDS011;3534;49.960;8.018;2023-06-22T04:18:18;11.20;;;8.87;;
6987;SDS011;3534;49.960;8.018;2023-06-22T04:20:45;13.10;;;9.80;;
6987;SDS011;3534;49.960;8.018;2023-06-22T04:23:12;11.63;;;9.50;;
6987;SDS011;3534;49.960;8.018;2023-06-22T04:25:39;11.03;;;8.47;;
6987;SDS011;3534;49.960;8.018;2023-06-22T04:28:05;9.57;;;8.43;;
6987;SDS011;3534;49.960;8.018;2023-06-22T04:30:37;11.73;;;8.90;;
6987;SDS011;3534;49.960;8.018;2023-06-22T04:33:11;12.37;;;10.20;;
6987;SDS011;3534;49.960;8.018;2023-06-22T04:35:39;11.87;;;9.50;;
6987;SDS011;3534;49.960;8.018;2023-06-22T04:38:07;9.60;;;8.60;;
6987;SDS011;3534;49.960;8.018;2023-06-22T04:40:34;10.43;;;8.60;;
6987;SDS011;3534;49.960;8.018;2023-06-22T04:43:00;10.80;;;8.47;;
6987;SDS011;3534;49.960;8.018;2023-06-22T04:45:28;11.50;;;7.80;;
6987;SDS011;3534;49.960;8.018;2023-06-22T04:47:55;11.20;;;8.60;;
6987;SDS011;3534;49.960;8.018;2023-06-22T04:50:22;9.87;;;7.60;;
6987;SDS011;3534;49.960;8.018;2023-06-22T04:52:50;11.40;;;8.30;;
6987;SDS011;3534;49.960;8.018;2023-06-22T04:55:20;12.90;;;8.83;;
6987;SDS011;3534;49.960;8.018;2023-06-22T04:57:47;12.00;;;9.77;;
6987;SDS011;3534;49.960;8.018;2023-06-22T05:00:14;10.77;;;9.57;;
6987;SDS011;3534;49.960;8.018;2023-06-22T05:02:43;17.17;;;8.83;;
6987;SDS011;3534;49.960;8.018;2023-06-22T05:05:10;10.77;;;8.93;;
6987;SDS011;3534;49.960;8.018;2023-06-22T05:07:39;15.07;;;9.50;;
6987;SDS011;3534;49.960;8.018;2023-06-22T05:10:10;10.77;;;8.83;;
6987;SDS011;3534;49.960;8.018;2023-06-22T05:12:37;9.03;;;8.10;;
6987;SDS011;3534;49.960;8.018;2023-06-22T05:15:05;12.60;;;9.80;;
6987;SDS011;3534;49.960;8.018;2023-06-22T05:17:33;15.23;;;9.97;;
6987;SDS011;3534;49.960;8.018;2023-06-22T05:20:00;12.13;;;10.00;;
6987;SDS011;3534;49.960;8.018;2023-06-22T05:22:27;16.07;;;10.63;;
6987;SDS011;3534;49.960;8.018;2023-06-22T05:24:54;12.00;;;9.90;;
6987;SDS011;3534;49.960;8.018;2023-06-22T05:27:22;11.10;;;9.67;;
6987;SDS011;3534;49.960;8.018;2023-06-22T05:29:48;10.37;;;9.20;;
6987;SDS011;3534;49.960;8.018;2023-06-22T05:32:15;20.10;;;11.50;;
6987;SDS011;3534;49.960;8.018;2023-06-22T05:34:42;14.83;;;10.27;;
6987;SDS011;3534;49.960;8.018;2023-06-22T05:37:08;12.27;;;9.90;;
6987;SDS011;3534;49.960;8.018;2023-06-22T05:39:35;14.40;;;10.67;;
6987;SDS011;3534;49.960;8.018;2023-06-22T05:42:04;12.77;;;11.47;;
6987;SDS011;3534;49.960;8.018;2023-06-22T05:44:32;14.80;;;9.77;;
6987;SDS011;3534;49.960;8.018;2023-06-22T05:46:59;12.73;;;10.03;;
6987;SDS011;3534;49.960;8.018;2023-06-22T05:49:26;13.43;;;11.13;;
6987;SDS011;3534;49.960;8.018;2023-06-22T05:51:54;12.93;;;10.40;;
6987;SDS011;3534;49.960;8.018;2023-06-22T05:54:22;11.87;;;9.90;;
6987;SDS011;3534;49.960;8.018;2023-06-22T05:56:48;12.27;;;9.93;;
6987;SDS011;3534;49.960;8.018;2023-06-22T05:59:15;12.00;;;9.73;;
6987;SDS011;3534;49.960;8.018;2023-06-22T06:01:43;13.53;;;10.00;;
6987;SDS011;3534;49.960;8.018;2023-06-22T06:04:10;14.20;;;10.20;;
6987;SDS011;3534;49.960;8.018;2023-06-22T06:06:36;12.00;;;9.60;;
6987;SDS011;3534;49.960;8.018;2023-06-22T06:09:03;13.90;;;10.03;;
6987;SDS011;3534;49.960;8.018;2023-06-22T06:11:30;12.13;;;9.73;;
6987;SDS011;3534;49.960;8.018;2023-06-22T06:13:57;12.47;;;10.60;;
6987;SDS011;3534;49.960;8.018;2023-06-22T06:16:23;10.93;;;8.87;;
6987;SDS011;3534;49.960;8.018;2023-06-22T06:18:52;12.20;;;9.40;;
6987;SDS011;3534;49.960;8.018;2023-06-22T06:21:20;10.17;;;8.43;;
6987;SDS011;3534;49.960;8.018;2023-06-22T06:23:47;10.33;;;9.20;;
6987;SDS011;3534;49.960;8.018;2023-06-22T06:26:14;11.47;;;7.80;;
6987;SDS011;3534;49.960;8.018;2023-06-22T06:28:42;11.83;;;9.00;;
6987;SDS011;3534;49.960;8.018;2023-06-22T06:31:09;11.07;;;9.50;;
6987;SDS011;3534;49.960;8.018;2023-06-22T06:33:37;14.37;;;9.17;;
6987;SDS011;3534;49.960;8.018;2023-06-22T06:36:05;9.37;;;8.50;;
6987;SDS011;3534;49.960;8.018;2023-06-22T06:38:33;11.80;;;9.13;;
6987;SDS011;3534;49.960;8.018;2023-06-22T06:41:00;9.67;;;8.40;;
6987;SDS011;3534;49.960;8.018;2023-06-22T06:43:26;11.10;;;9.77;;
6987;SDS011;3534;49.960;8.018;2023-06-22T06:45:53;12.50;;;9.83;;
6987;SDS011;3534;49.960;8.018;2023-06-22T06:48:20;13.63;;;9.77;;
6987;SDS011;3534;49.960;8.018;2023-06-22T06:50:46;11.20;;;8.87;;
6987;SDS011;3534;49.960;8.018;2023-06-22T06:53:15;12.50;;;9.67;;
6987;SDS011;3534;49.960;8.018;2023-06-22T06:55:41;11.97;;;9.30;;
6987;SDS011;3534;49.960;8.018;2023-06-22T06:58:10;13.37;;;9.63;;
6987;SDS011;3534;49.960;8.018;2023-06-22T07:00:38;10.70;;;9.23;;
6987;SDS011;3534;49.960;8.018;2023-06-22T07:03:05;20.30;;;10.30;;
6987;SDS011;3534;49.960;8.018;2023-06-22T07:05:32;10.90;;;9.67;;
6987;SDS011;3534;49.960;8.018;2023-06-22T07:07:58;18.23;;;9.80;;
6987;SDS011;3534;49.960;8.018;2023-06-22T07:10:28;14.37;;;10.00;;
6987;SDS011;3534;49.960;8.018;2023-06-22T07:12:54;12.33;;;9.27;;
6987;SDS011;3534;49.960;8.018;2023-06-22T07:15:22;11.23;;;8.27;;
6987;SDS011;3534;49.960;8.018;2023-06-22T07:17:49;9.20;;;8.23;;
6987;SDS011;3534;49.960;8.018;2023-06-22T07:20:15;10.77;;;9.20;;
6987;SDS011;3534;49.960;8.018;2023-06-22T07:22:44;14.80;;;9.70;;
6987;SDS011;3534;49.960;8.018;2023-06-22T07:25:10;12.50;;;8.70;;
6987;SDS011;3534;49.960;8.018;2023-06-22T07:27:42;17.93;;;9.87;;
6987;SDS011;3534;49.960;8.018;2023-06-22T07:30:11;13.47;;;9.40;;
6987;SDS011;3534;49.960;8.018;2023-06-22T07:32:39;10.50;;;8.97;;
6987;SDS011;3534;49.960;8.018;2023-06-22T07:35:06;10.50;;;9.10;;
6987;SDS011;3534;49.960;8.018;2023-06-22T07:37:33;11.23;;;8.90;;
6987;SDS011;3534;49.960;8.018;2023-06-22T07:40:00;20.83;;;8.53;;
6987;SDS011;3534;49.960;8.018;2023-06-22T07:42:31;16.83;;;8.80;;
6987;SDS011;3534;49.960;8.018;2023-06-22T07:45:00;13.67;;;8.83;;
6987;SDS011;3534;49.960;8.018;2023-06-22T07:47:28;12.57;;;8.83;;
6987;SDS011;3534;49.960;8.018;2023-06-22T07:49:54;10.27;;;8.63;;
6987;SDS011;3534;49.960;8.018;2023-06-22T07:52:23;11.07;;;9.37;;
6987;SDS011;3534;49.960;8.018;2023-06-22T07:54:50;13.87;;;9.67;;
6987;SDS011;3534;49.960;8.018;2023-06-22T07:57:17;11.07;;;9.40;;
6987;SDS011;3534;49.960;8.018;2023-06-22T07:59:43;9.70;;;8.40;;
6987;SDS011;3534;49.960;8.018;2023-06-22T08:02:12;10.77;;;9.20;;
6987;SDS011;3534;49.960;8.018;2023-06-22T08:04:38;15.27;;;9.33;;
6987;SDS011;3534;49.960;8.018;2023-06-22T08:07:06;8.87;;;8.00;;
6987;SDS011;3534;49.960;8.018;2023-06-22T08:09:32;11.30;;;9.07;;
6987;SDS011;3534;49.960;8.018;2023-06-22T08:11:59;9.60;;;8.53;;
6987;SDS011;3534;49.960;8.018;2023-06-22T08:14:26;11.53;;;9.47;;
6987;SDS011;3534;49.960;8.018;2023-06-22T08:16:53;11.13;;;9.30;;
6987;SDS011;3534;49.960;8.018;2023-06-22T08:19:21;13.43;;;10.10;;
6987;SDS011;3534;49.960;8.018;2023-06-22T08:21:48;14.30;;;9.07;;
6987;SDS011;3534;49.960;8.018;2023-06-22T08:24:15;10.90;;;9.67;;
6987;SDS011;3534;49.960;8.018;2023-06-22T08:26:41;11.57;;;8.93;;
6987;SDS011;3534;49.960;8.018;2023-06-22T08:29:08;10.50;;;8.70;;
6987;SDS011;3534;49.960;8.018;2023-06-22T08:31:35;9.40;;;8.50;;
6987;SDS011;3534;49.960;8.018;2023-06-22T08:34:02;12.67;;;10.00;;
6987;SDS011;3534;49.960;8.018;2023-06-22T08:36:30;11.53;;;9.00;;
6987;SDS011;3534;49.960;8.018;2023-06-22T08:38:57;9.60;;;8.63;;
6987;SDS011;3534;49.960;8.018;2023-06-22T08:41:26;14.70;;;10.97;;
6987;SDS011;3534;49.960;8.018;2023-06-22T08:43:53;15.07;;;9.33;;
6987;SDS011;3534;49.960;8.018;2023-06-22T08:46:19;10.73;;;9.03;;
6987;SDS011;3534;49.960;8.018;2023-06-22T08:48:48;11.07;;;9.07;;
6987;SDS011;3534;49.960;8.018;2023-06-22T08:51:15;11.30;;;9.43;;
6987;SDS011;3534;49.960;8.018;2023-06-22T08:53:43;10.93;;;9.27;;
6987;SDS011;3534;49.960;8.018;2023-06-22T08:56:10;16.23;;;9.50;;
6987;SDS011;3534;49.960;8.018;2023-06-22T08:58:37;11.47;;;8.77;;
6987;SDS011;3534;49.960;8.018;2023-06-22T09:01:04;12.30;;;9.87;;
6987;SDS011;3534;49.960;8.018;2023-06-22T09:03:31;12.20;;;8.27;;
6987;SDS011;3534;49.960;8.018;2023-06-22T09:05:57;13.70;;;10.40;;
6987;SDS011;3534;49.960;8.018;2023-06-22T09:08:24;18.17;;;10.13;;
6987;SDS011;3534;49.960;8.018;2023-06-22T09:10:52;11.33;;;9.20;;
6987;SDS011;3534;49.960;8.018;2023-06-22T09:13:19;12.70;;;9.70;;
6987;SDS011;3534;49.960;8.018;2023-06-22T09:15:47;16.60;;;10.00;;
6987;SDS011;3534;49.960;8.018;2023-06-22T09:18:13;14.57;;;9.53;;
6987;SDS011;3534;49.960;8.018;2023-06-22T09:20:40;11.10;;;9.00;;
6987;SDS011;3534;49.960;8.018;2023-06-22T09:23:07;10.73;;;9.63;;
6987;SDS011;3534;49.960;8.018;2023-06-22T09:25:33;10.87;;;8.73;;
6987;SDS011;3534;49.960;8.018;2023-06-22T09:28:02;15.77;;;9.30;;
6987;SDS011;3534;49.960;8.018;2023-06-22T09:30:29;13.03;;;8.90;;
6987;SDS011;3534;49.960;8.018;2023-06-22T09:32:55;16.90;;;9.27;;
6987;SDS011;3534;49.960;8.018;2023-06-22T09:35:22;11.13;;;9.90;;
6987;SDS011;3534;49.960;8.018;2023-06-22T09:37:48;14.17;;;9.70;;
6987;SDS011;3534;49.960;8.018;2023-06-22T09:40:15;10.87;;;8.80;;
6987;SDS011;3534;49.960;8.018;2023-06-22T09:42:42;10.50;;;8.70;;
6987;SDS011;3534;49.960;8.018;2023-06-22T09:45:10;14.50;;;8.70;;
6987;SDS011;3534;49.960;8.018;2023-06-22T09:47:37;10.87;;;9.40;;
6987;SDS011;3534;49.960;8.018;2023-06-22T09:50:05;10.90;;;8.97;;
6987;SDS011;3534;49.960;8.018;2023-06-22T09:52:33;12.00;;;8.93;;
6987;SDS011;3534;49.960;8.018;2023-06-22T09:55:00;18.37;;;9.50;;
6987;SDS011;3534;49.960;8.018;2023-06-22T09:57:28;9.80;;;8.63;;
6987;SDS011;3534;49.960;8.018;2023-06-22T09:59:55;11.97;;;8.40;;
6987;SDS011;3534;49.960;8.018;2023-06-22T10:02:23;9.83;;;8.53;;
6987;SDS011;3534;49.960;8.018;2023-06-22T10:04:50;14.17;;;11.00;;
6987;SDS011;3534;49.960;8.018;2023-06-22T10:07:16;12.87;;;9.53;;
6987;SDS011;3534;49.960;8.018;2023-06-22T10:09:43;10.00;;;8.83;;
6987;SDS011;3534;49.960;8.018;2023-06-22T10:12:10;10.70;;;9.70;;
6987;SDS011;3534;49.960;8.018;2023-06-22T10:14:37;11.10;;;9.20;;
6987;SDS011;3534;49.960;8.018;2023-06-22T10:17:03;13.73;;;9.63;;
6987;SDS011;3534;49.960;8.018;2023-06-22T10:19:33;15.93;;;10.03;;
6987;SDS011;3534;49.960;8.018;2023-06-22T10:22:02;9.40;;;8.50;;
6987;SDS011;3534;49.960;8.018;2023-06-22T10:24:30;15.63;;;8.97;;
6987;SDS011;3534;49.960;8.018;2023-06-22T10:26:56;10.23;;;8.30;;
6987;SDS011;3534;49.960;8.018;2023-06-22T10:29:23;9.60;;;8.17;;
6987;SDS011;3534;49.960;8.018;2023-06-22T10:31:50;9.07;;;8.17;;
6987;SDS011;3534;49.960;8.018;2023-06-22T10:34:17;16.03;;;8.63;;
6987;SDS011;3534;49.960;8.018;2023-06-22T10:36:45;11.13;;;7.83;;
6987;SDS011;3534;49.960;8.018;2023-06-22T10:39:13;11.50;;;8.87;;
6987;SDS011;3534;49.960;8.018;2023-06-22T10:41:40;11.17;;;8.97;;
6987;SDS011;3534;49.960;8.018;2023-06-22T10:44:07;8.73;;;7.83;;
6987;SDS011;3534;49.960;8.018;2023-06-22T10:46:33;11.83;;;8.33;;
6987;SDS011;3534;49.960;8.018;2023-06-22T10:49:00;11.10;;;7.43;;
6987;SDS011;3534;49.960;8.018;2023-06-22T10:51:27;8.90;;;7.87;;
6987;SDS011;3534;49.960;8.018;2023-06-22T10:53:55;11.80;;;8.00;;
6987;SDS011;3534;49.960;8.018;2023-06-22T10:56:21;8.53;;;7.63;;
6987;SDS011;3534;49.960;8.018;2023-06-22T10:58:48;9.13;;;7.10;;
6987;SDS011;3534;49.960;8.018;2023-06-22T11:01:16;11.10;;;7.47;;
6987;SDS011;3534;49.960;8.018;2023-06-22T11:03:43;9.63;;;7.60;;
6987;SDS011;3534;49.960;8.018;2023-06-22T11:06:10;13.50;;;8.27;;
6987;SDS011;3534;49.960;8.018;2023-06-22T11:08:37;10.70;;;7.33;;
6987;SDS011;3534;49.960;8.018;2023-06-22T11:11:05;10.07;;;7.80;;
6987;SDS011;3534;49.960;8.018;2023-06-22T11:13:31;11.10;;;7.70;;
6987;SDS011;3534;49.960;8.018;2023-06-22T11:15:58;16.80;;;8.57;;
6987;SDS011;3534;49.960;8.018;2023-06-22T11:18:25;12.30;;;8.10;;
6987;SDS011;3534;49.960;8.018;2023-06-22T11:20:52;12.17;;;8.07;;
6987;SDS011;3534;49.960;8.018;2023-06-22T11:23:18;10.57;;;8.60;;
6987;SDS011;3534;49.960;8.018;2023-06-22T11:25:45;10.33;;;8.27;;
6987;SDS011;3534;49.960;8.018;2023-06-22T11:28:13;15.33;;;7.67;;
6987;SDS011;3534;49.960;8.018;2023-06-22T11:30:40;12.63;;;8.53;;
6987;SDS011;3534;49.960;8.018;2023-06-22T11:33:06;9.67;;;8.03;;
6987;SDS011;3534;49.960;8.018;2023-06-22T11:35:33;12.47;;;7.50;;
6987;SDS011;3534;49.960;8.018;2023-06-22T11:38:00;19.23;;;7.67;;
6987;SDS011;3534;49.960;8.018;2023-06-22T11:40:28;9.60;;;8.07;;
6987;SDS011;3534;49.960;8.018;2023-06-22T11:42:55;18.93;;;7.57;;
6987;SDS011;3534;49.960;8.018;2023-06-22T11:45:23;10.00;;;7.57;;
6987;SDS011;3534;49.960;8.018;2023-06-22T11:47:50;14.70;;;7.60;;
6987;SDS011;3534;49.960;8.018;2023-06-22T11:50:17;12.93;;;8.30;;
6987;SDS011;3534;49.960;8.018;2023-06-22T11:52:43;12.30;;;8.02;;
6987;SDS011;3534;49.960;8.018;2023-06-22T11:55:10;11.85;;;7.90;;
6987;SDS011;3534;49.960;8.018;2023-06-22T11:57:37;10.27;;;7.72;;
6987;SDS011;3534;49.960;8.018;2023-06-22T12:00:05;8.30;;;7.50;;
6987;SDS011;3534;49.960;8.018;2023-06-22T12:02:41;8.77;;;7.60;;
6987;SDS011;3534;49.960;8.018;2023-06-22T12:05:08;8.80;;;6.55;;
6987;SDS011;3534;49.960;8.018;2023-06-22T12:07:34;11.15;;;6.57;;
6987;SDS011;3534;49.960;8.018;2023-06-22T12:10:02;10.05;;;7.25;;
6987;SDS011;3534;49.960;8.018;2023-06-22T12:12:29;10.73;;;6.35;;
6987;SDS011;3534;49.960;8.018;2023-06-22T12:14:56;12.18;;;7.55;;
6987;SDS011;3534;49.960;8.018;2023-06-22T12:17:23;8.90;;;7.25;;
6987;SDS011;3534;49.960;8.018;2023-06-22T12:19:51;11.27;;;8.10;;
6987;SDS011;3534;49.960;8.018;2023-06-22T12:22:17;11.27;;;7.65;;
6987;SDS011;3534;49.960;8.018;2023-06-22T12:24:44;9.70;;;6.95;;
6987;SDS011;3534;49.960;8.018;2023-06-22T12:27:11;13.70;;;7.10;;
6987;SDS011;3534;49.960;8.018;2023-06-22T12:29:37;11.48;;;7.10;;
6987;SDS011;3534;49.960;8.018;2023-06-22T12:32:04;12.25;;;7.00;;
6987;SDS011;3534;49.960;8.018;2023-06-22T12:34:31;7.95;;;7.13;;
6987;SDS011;3534;49.960;8.018;2023-06-22T12:36:59;12.98;;;6.65;;
6987;SDS011;3534;49.960;8.018;2023-06-22T12:39:27;12.82;;;7.47;;
6987;SDS011;3534;49.960;8.018;2023-06-22T12:41:53;10.23;;;6.85;;
6987;SDS011;3534;49.960;8.018;2023-06-22T12:44:20;8.75;;;6.30;;
6987;SDS011;3534;49.960;8.018;2023-06-22T12:46:47;10.18;;;6.80;;
6987;SDS011;3534;49.960;8.018;2023-06-22T12:49:13;8.20;;;6.88;;
6987;SDS011;3534;49.960;8.018;2023-06-22T12:51:40;8.98;;;6.85;;
6987;SDS011;3534;49.960;8.018;2023-06-22T12:54:09;9.77;;;7.25;;
6987;SDS011;3534;49.960;8.018;2023-06-22T12:56:37;10.32;;;7.05;;
6987;SDS011;3534;49.960;8.018;2023-06-22T12:59:04;10.80;;;7.25;;
6987;SDS011;3534;49.960;8.018;2023-06-22T13:01:31;9.00;;;6.45;;
6987;SDS011;3534;49.960;8.018;2023-06-22T13:03:58;10.07;;;6.57;;
6987;SDS011;3534;49.960;8.018;2023-06-22T13:06:25;11.27;;;6.13;;
6987;SDS011;3534;49.960;8.018;2023-06-22T13:08:51;8.35;;;6.60;;
6987;SDS011;3534;49.960;8.018;2023-06-22T13:11:20;10.27;;;6.28;;
6987;SDS011;3534;49.960;8.018;2023-06-22T13:13:46;8.88;;;6.70;;
6987;SDS011;3534;49.960;8.018;2023-06-22T13:16:13;10.57;;;6.70;;
6987;SDS011;3534;49.960;8.018;2023-06-22T13:18:40;9.85;;;6.28;;
6987;SDS011;3534;49.960;8.018;2023-06-22T13:21:06;10.25;;;6.53;;
6987;SDS011;3534;49.960;8.018;2023-06-22T13:23:33;8.38;;;6.85;;
6987;SDS011;3534;49.960;8.018;2023-06-22T13:26:00;14.27;;;6.40;;
6987;SDS011;3534;49.960;8.018;2023-06-22T13:28:29;8.80;;;6.25;;
6987;SDS011;3534;49.960;8.018;2023-06-22T13:30:56;11.50;;;5.28;;
6987;SDS011;3534;49.960;8.018;2023-06-22T13:33:22;9.82;;;5.63;;
6987;SDS011;3534;49.960;8.018;2023-06-22T13:35:49;10.13;;;5.43;;
6987;SDS011;3534;49.960;8.018;2023-06-22T13:38:16;13.25;;;5.05;;
6987;SDS011;3534;49.960;8.018;2023-06-22T13:40:43;8.85;;;5.10;;
6987;SDS011;3534;49.960;8.018;2023-06-22T13:43:09;11.70;;;5.30;;
6987;SDS011;3534;49.960;8.018;2023-06-22T13:45:37;13.13;;;5.20;;
6987;SDS011;3534;49.960;8.018;2023-06-22T13:48:05;10.80;;;5.43;;
6987;SDS011;3534;49.960;8.018;2023-06-22T13:50:31;11.27;;;5.32;;
6987;SDS011;3534;49.960;8.018;2023-06-22T13:52:58;10.10;;;5.40;;
6987;SDS011;3534;49.960;8.018;2023-06-22T13:55:25;13.40;;;5.90;;
6987;SDS011;3534;49.960;8.018;2023-06-22T13:57:51;15.82;;;6.20;;
6987;SDS011;3534;49.960;8.018;2023-06-22T14:00:18;8.05;;;5.50;;
6987;SDS011;3534;49.960;8.018;2023-06-22T14:02:46;19.95;;;5.03;;
6987;SDS011;3534;49.960;8.018;2023-06-22T14:05:13;9.60;;;5.82;;
6987;SDS011;3534;49.960;8.018;2023-06-22T14:07:40;11.20;;;5.78;;
6987;SDS011;3534;49.960;8.018;2023-06-22T14:10:07;11.35;;;5.93;;
6987;SDS011;3534;49.960;8.018;2023-06-22T14:12:34;9.93;;;5.55;;
6987;SDS011;3534;49.960;8.018;2023-06-22T14:15:00;21.05;;;5.97;;
6987;SDS011;3534;49.960;8.018;2023-06-22T14:17:27;9.82;;;5.55;;
6987;SDS011;3534;49.960;8.018;2023-06-22T14:19:55;13.63;;;5.60;;
6987;SDS011;3534;49.960;8.018;2023-06-22T14:22:22;12.15;;;5.60;;
6987;SDS011;3534;49.960;8.018;2023-06-22T14:24:49;11.05;;;6.35;;
6987;SDS011;3534;49.960;8.018;2023-06-22T14:27:16;12.38;;;5.88;;
6987;SDS011;3534;49.960;8.018;2023-06-22T14:29:42;13.45;;;5.78;;
6987;SDS011;3534;49.960;8.018;2023-06-22T14:32:09;11.35;;;4.65;;
6987;SDS011;3534;49.960;8.018;2023-06-22T14:34:36;11.25;;;5.70;;
6987;SDS011;3534;49.960;8.018;2023-06-22T14:37:06;10.98;;;4.32;;
6987;SDS011;3534;49.960;8.018;2023-06-22T14:39:34;18.95;;;4.78;;
6987;SDS011;3534;49.960;8.018;2023-06-22T14:42:01;13.40;;;4.93;;
6987;SDS011;3534;49.960;8.018;2023-06-22T14:44:28;15.10;;;5.00;;
6987;SDS011;3534;49.960;8.018;2023-06-22T14:46:55;13.50;;;4.87;;
6987;SDS011;3534;49.960;8.018;2023-06-22T14:49:22;12.57;;;4.67;;
6987;SDS011;3534;49.960;8.018;2023-06-22T14:51:48;14.77;;;4.78;;
6987;SDS011;3534;49.960;8.018;2023-06-22T14:54:16;15.77;;;4.70;;
6987;SDS011;3534;49.960;8.018;2023-06-22T14:56:43;17.30;;;4.47;;
6987;SDS011;3534;49.960;8.018;2023-06-22T14:59:10;9.25;;;4.57;;
6987;SDS011;3534;49.960;8.018;2023-06-22T15:01:36;10.30;;;5.10;;
6987;SDS011;3534;49.960;8.018;2023-06-22T15:04:03;12.17;;;5.67;;